createdAt,value
2022-08-09T00:01:54.990Z,16.20
2022-08-09T00:04:35.029Z,16.16
2022-08-09T00:07:10.509Z,16.16
2022-08-09T00:09:40.530Z,16.14
2022-08-09T00:12:22.356Z,16.09
2022-08-09T00:14:56.726Z,16.08
2022-08-09T00:18:04.645Z,16.07
2022-08-09T00:20:16.509Z,16.06
2022-08-09T00:22:48.274Z,16.06
2022-08-09T00:25:23.560Z,16.03
2022-08-09T00:28:04.107Z,16.02
2022-08-09T00:30:34.248Z,16.02
2022-08-09T00:33:03.789Z,16.02
2022-08-09T00:35:43.118Z,16.02
2022-08-09T00:38:13.119Z,16.03
2022-08-09T00:40:53.179Z,16.04
2022-08-09T00:44:14.428Z,16.05
2022-08-09T00:46:28.351Z,16.04
2022-08-09T00:49:04.021Z,16.02
2022-08-09T00:51:54.148Z,16.03
2022-08-09T00:54:35.261Z,16.06
2022-08-09T00:57:10.490Z,16.09
2022-08-09T00:59:46.702Z,16.13
2022-08-09T01:02:21.703Z,16.15
2022-08-09T01:04:51.330Z,16.15
2022-08-09T01:07:20.716Z,16.13
2022-08-09T01:10:07.747Z,16.12
2022-08-09T01:12:38.523Z,16.10
2022-08-09T01:15:16.620Z,16.09
2022-08-09T01:17:47.472Z,16.07
2022-08-09T01:20:16.919Z,16.07
2022-08-09T01:22:48.229Z,16.07
2022-08-09T01:25:21.941Z,16.08
2022-08-09T01:27:51.501Z,16.07
2022-08-09T01:30:35.296Z,16.05
2022-08-09T01:33:06.096Z,16.01
2022-08-09T01:35:39.541Z,15.95
2022-08-09T01:38:15.493Z,15.91
2022-08-09T01:40:53.119Z,15.87
2022-08-09T01:43:50.974Z,15.82
2022-08-09T01:46:25.251Z,15.77
2022-08-09T01:48:56.807Z,15.77
2022-08-09T01:51:26.337Z,15.75
2022-08-09T01:53:57.848Z,15.70
2022-08-09T01:56:27.667Z,15.66
2022-08-09T01:58:57.007Z,15.60
2022-08-09T02:01:58.588Z,15.60
2022-08-09T02:04:15.698Z,15.64
2022-08-09T02:07:03.267Z,15.67
2022-08-09T02:09:41.939Z,15.69
2022-08-09T02:12:13.428Z,15.72
2022-08-09T02:14:51.724Z,15.70
2022-08-09T02:17:59.968Z,15.67
2022-08-09T02:20:10.540Z,15.66
2022-08-09T02:22:40.030Z,15.67
2022-08-09T02:25:09.826Z,15.65
2022-08-09T02:28:00.584Z,15.62
2022-08-09T02:30:34.106Z,15.61
2022-08-09T02:33:03.759Z,15.64
2022-08-09T02:36:02.595Z,15.65
2022-08-09T02:38:29.718Z,15.68
2022-08-09T02:40:59.346Z,15.70
2022-08-09T02:43:28.816Z,15.71
2022-08-09T02:45:58.401Z,15.71
2022-08-09T02:48:31.131Z,15.71
2022-08-09T02:51:01.696Z,15.70
2022-08-09T02:53:32.009Z,15.69
2022-08-09T02:56:03.988Z,15.68
2022-08-09T02:58:36.379Z,15.69
2022-08-09T03:01:08.134Z,15.69
2022-08-09T03:04:17.476Z,15.69
2022-08-09T03:06:29.616Z,15.69
2022-08-09T03:08:58.939Z,15.71
2022-08-09T03:11:30.223Z,15.75
2022-08-09T03:14:18.274Z,15.76
2022-08-09T03:16:48.429Z,15.74
2022-08-09T03:19:59.454Z,15.73
2022-08-09T03:22:12.172Z,15.72
2022-08-09T03:25:06.285Z,15.70
2022-08-09T03:27:47.821Z,15.70
2022-08-09T03:30:28.122Z,15.70
2022-08-09T03:32:58.792Z,15.67
2022-08-09T03:36:11.346Z,15.67
2022-08-09T03:38:28.841Z,15.69
2022-08-09T03:40:59.868Z,15.70
2022-08-09T03:43:31.660Z,15.69
2022-08-09T03:46:13.626Z,15.69
2022-08-09T03:48:51.471Z,15.70
2022-08-09T03:51:56.727Z,15.71
2022-08-09T03:54:11.375Z,15.76
2022-08-09T03:56:41.709Z,15.79
2022-08-09T03:59:17.275Z,15.84
2022-08-09T04:01:56.619Z,15.84
2022-08-09T04:04:32.633Z,15.86
2022-08-09T04:07:08.218Z,15.87
2022-08-09T04:09:41.676Z,15.89
2022-08-09T04:12:30.203Z,15.90
2022-08-09T04:15:11.377Z,15.90
2022-08-09T04:17:42.429Z,15.93
2022-08-09T04:20:13.197Z,15.97
2022-08-09T04:22:44.451Z,16.00
2022-08-09T04:25:14.036Z,16.03
2022-08-09T04:27:46.731Z,16.08
2022-08-09T04:30:20.781Z,16.14
2022-08-09T04:32:52.815Z,16.16
2022-08-09T04:35:23.710Z,16.19
2022-08-09T04:37:53.294Z,16.20
2022-08-09T04:40:36.211Z,16.24
2022-08-09T04:43:06.104Z,16.29
2022-08-09T04:45:53.269Z,16.32
2022-08-09T04:48:33.142Z,16.36
2022-08-09T04:51:03.070Z,16.41
2022-08-09T04:53:32.383Z,16.45
2022-08-09T04:56:03.703Z,16.51
2022-08-09T04:58:33.986Z,16.56
2022-08-09T05:01:03.538Z,16.60
2022-08-09T05:03:42.360Z,16.63
2022-08-09T05:06:25.867Z,16.68
2022-08-09T05:09:00.363Z,16.74
2022-08-09T05:11:35.556Z,16.80
2022-08-09T05:14:05.857Z,16.88
2022-08-09T05:16:43.568Z,16.98
2022-08-09T05:19:25.971Z,17.05
2022-08-09T05:22:01.052Z,17.15
2022-08-09T05:24:30.323Z,17.21
2022-08-09T05:26:59.533Z,17.28
2022-08-09T05:29:31.173Z,17.32
2022-08-09T05:32:01.756Z,17.40
2022-08-09T05:34:32.485Z,17.48
2022-08-09T05:37:05.171Z,17.56
2022-08-09T05:39:43.410Z,17.67
2022-08-09T05:42:21.330Z,17.72
2022-08-09T05:45:05.376Z,17.79
2022-08-09T05:47:34.803Z,17.84
2022-08-09T05:50:25.547Z,17.91
2022-08-09T05:53:04.423Z,18.00
2022-08-09T05:55:33.668Z,18.04
2022-08-09T05:58:02.955Z,18.10
2022-08-09T06:00:36.663Z,18.19
2022-08-09T06:03:10.784Z,18.28
2022-08-09T06:05:58.239Z,18.37
2022-08-09T06:08:29.768Z,18.46
2022-08-09T06:11:00.799Z,18.54
2022-08-09T06:13:34.135Z,18.63
2022-08-09T06:16:04.718Z,18.70
2022-08-09T06:18:34.676Z,18.75
2022-08-09T06:21:04.205Z,18.79
2022-08-09T06:23:58.856Z,18.85
2022-08-09T06:26:28.538Z,18.93
2022-08-09T06:29:01.122Z,18.98
2022-08-09T06:31:39.364Z,19.03
2022-08-09T06:34:26.235Z,19.08
2022-08-09T06:37:00.111Z,19.13
2022-08-09T06:39:48.578Z,19.15
2022-08-09T06:42:24.886Z,19.20
2022-08-09T06:46:04.393Z,19.26
2022-08-09T06:48:00.642Z,19.36
2022-08-09T06:50:31.862Z,19.44
2022-08-09T06:53:03.084Z,19.50
2022-08-09T06:55:33.454Z,19.59
2022-08-09T06:58:04.685Z,19.65
2022-08-09T07:00:54.930Z,19.73
2022-08-09T07:03:28.060Z,19.81
2022-08-09T07:06:04.502Z,19.82
2022-08-09T07:08:35.319Z,19.87
2022-08-09T07:11:07.216Z,19.92
2022-08-09T07:13:45.025Z,19.98
2022-08-09T07:16:41.614Z,20.05
2022-08-09T07:19:15.794Z,20.09
2022-08-09T07:21:57.211Z,20.13
2022-08-09T07:24:32.082Z,20.18
2022-08-09T07:27:02.544Z,20.25
2022-08-09T07:29:37.687Z,20.30
2022-08-09T07:32:07.657Z,20.34
2022-08-09T07:34:36.978Z,20.36
2022-08-09T07:37:06.438Z,20.35
2022-08-09T07:39:46.451Z,20.43
2022-08-09T07:42:16.006Z,20.50
2022-08-09T07:44:50.850Z,20.55
2022-08-09T07:47:39.423Z,20.60
2022-08-09T07:50:12.331Z,20.64
2022-08-09T07:52:43.054Z,20.68
2022-08-09T07:55:13.002Z,20.71
2022-08-09T07:57:48.093Z,20.73
2022-08-09T08:00:20.456Z,20.77
2022-08-09T08:03:08.303Z,20.81
2022-08-09T08:05:58.050Z,20.82
2022-08-09T08:09:00.394Z,20.88
2022-08-09T08:12:11.088Z,20.93
2022-08-09T08:14:07.248Z,20.99
2022-08-09T08:16:39.705Z,21.04
2022-08-09T08:19:20.800Z,21.08
2022-08-09T08:21:53.269Z,21.14
2022-08-09T08:24:22.750Z,21.20
2022-08-09T08:26:56.430Z,21.28
2022-08-09T08:29:27.391Z,21.36
2022-08-09T08:32:04.432Z,21.43
2022-08-09T08:34:36.533Z,21.51
2022-08-09T08:37:06.636Z,21.60
2022-08-09T08:39:47.281Z,21.68
2022-08-09T08:42:16.746Z,21.81
2022-08-09T08:44:46.438Z,21.95
2022-08-09T08:47:17.560Z,22.07
2022-08-09T08:49:49.333Z,22.19
2022-08-09T08:55:08.883Z,22.43
2022-08-09T08:57:38.733Z,22.53
2022-08-09T09:00:16.989Z,22.63
2022-08-09T09:02:52.851Z,22.75
2022-08-09T09:05:57.832Z,22.80
2022-08-09T09:08:29.693Z,22.92
2022-08-09T09:11:01.388Z,23.05
2022-08-09T09:13:41.781Z,23.20
2022-08-09T09:16:29.641Z,23.39
2022-08-09T09:21:50.418Z,23.84
2022-08-09T09:24:20.850Z,24.05
2022-08-09T09:26:51.437Z,24.17
2022-08-09T09:29:20.886Z,24.36
2022-08-09T09:32:06.460Z,24.49
2022-08-09T09:34:44.718Z,24.68
2022-08-09T09:37:14.358Z,24.85
2022-08-09T09:39:57.050Z,24.92
2022-08-09T09:42:30.918Z,25.18
2022-08-09T09:45:00.524Z,25.45
2022-08-09T09:47:30.235Z,25.61
2022-08-09T09:50:14.279Z,25.72
2022-08-09T09:52:53.640Z,25.85
2022-08-09T09:55:32.490Z,25.98
2022-08-09T09:58:17.346Z,26.09
2022-08-09T10:00:54.707Z,26.05
2022-08-09T10:03:25.148Z,25.91
2022-08-09T10:06:03.329Z,25.83
2022-08-09T10:08:42.407Z,25.69
2022-08-09T10:11:38.070Z,25.69
2022-08-09T10:14:02.157Z,25.75
2022-08-09T10:16:56.755Z,25.85
2022-08-09T10:19:20.824Z,25.92
2022-08-09T10:21:52.892Z,25.90
2022-08-09T10:24:25.548Z,25.95
2022-08-09T10:27:17.006Z,25.86
2022-08-09T10:30:48.142Z,25.85
2022-08-09T10:32:50.319Z,25.90
2022-08-09T10:35:20.139Z,26.04
2022-08-09T10:37:51.757Z,26.11
2022-08-09T10:40:33.486Z,26.17
2022-08-09T10:43:08.131Z,26.22
2022-08-09T10:45:49.242Z,26.32
2022-08-09T10:48:30.666Z,26.46
2022-08-09T10:51:13.629Z,26.70
2022-08-09T10:53:46.925Z,26.91
2022-08-09T10:56:24.657Z,27.03
2022-08-09T10:58:55.068Z,27.15
2022-08-09T11:03:15.166Z,27.32
2022-08-09T11:04:19.761Z,27.45
2022-08-09T11:07:00.738Z,27.54
2022-08-09T11:09:33.674Z,27.59
2022-08-09T11:12:07.344Z,27.67
2022-08-09T11:14:38.507Z,27.70
2022-08-09T11:17:07.858Z,27.79
2022-08-09T11:20:10.043Z,27.87
2022-08-09T11:22:26.413Z,27.84
2022-08-09T11:24:56.015Z,27.72
2022-08-09T11:28:03.664Z,27.55
2022-08-09T11:30:32.427Z,27.63
2022-08-09T11:33:03.644Z,27.71
2022-08-09T11:35:35.142Z,27.79
2022-08-09T11:38:19.285Z,27.72
2022-08-09T11:40:53.011Z,27.46
2022-08-09T11:43:24.311Z,27.14
2022-08-09T11:45:54.105Z,26.90
2022-08-09T11:48:27.009Z,26.76
2022-08-09T11:52:53.696Z,26.80
2022-08-09T11:54:01.041Z,27.08
2022-08-09T11:56:42.832Z,27.38
2022-08-09T11:59:17.913Z,27.43
2022-08-09T12:02:16.264Z,27.39
2022-08-09T12:04:37.248Z,27.49
2022-08-09T12:07:07.929Z,27.55
2022-08-09T12:09:38.377Z,27.56
2022-08-09T12:12:12.840Z,27.63
2022-08-09T12:15:08.337Z,27.47
2022-08-09T12:17:44.868Z,27.14
2022-08-09T12:20:21.628Z,26.96
2022-08-09T12:22:52.068Z,26.89
2022-08-09T12:25:36.654Z,26.76
2022-08-09T12:29:09.977Z,26.63
2022-08-09T12:30:58.049Z,26.65
2022-08-09T12:33:51.011Z,26.61
2022-08-09T12:36:31.461Z,26.58
2022-08-09T12:39:04.226Z,26.58
2022-08-09T12:41:39.613Z,26.66
2022-08-09T12:44:10.294Z,26.78
2022-08-09T12:46:49.851Z,26.88
2022-08-09T12:49:20.927Z,27.00
2022-08-09T12:52:00.582Z,26.95
2022-08-09T12:54:31.624Z,26.90
2022-08-09T12:57:01.457Z,26.88
2022-08-09T12:59:40.032Z,26.89
2022-08-09T13:02:20.137Z,26.89
2022-08-09T13:04:50.553Z,26.87
2022-08-09T13:07:28.666Z,26.84
2022-08-09T13:10:10.536Z,26.79
2022-08-09T13:13:10.913Z,26.89
2022-08-09T13:15:30.411Z,27.03
2022-08-09T13:18:05.857Z,27.14
2022-08-09T13:21:03.775Z,27.27
2022-08-09T13:24:07.378Z,27.37
2022-08-09T13:26:17.402Z,27.34
2022-08-09T13:29:01.537Z,27.36
2022-08-09T13:32:20.168Z,27.37
2022-08-09T13:34:20.728Z,27.53
2022-08-09T13:36:50.109Z,27.73
2022-08-09T13:41:51.142Z,27.91
2022-08-09T13:42:12.116Z,28.06
2022-08-09T13:44:42.741Z,28.21
2022-08-09T13:47:33.598Z,28.42
2022-08-09T13:50:02.557Z,28.64
2022-08-09T13:52:32.475Z,28.86
2022-08-09T13:55:05.079Z,29.11
2022-08-09T13:57:39.556Z,29.26
2022-08-09T14:00:09.736Z,29.35
2022-08-09T14:02:42.821Z,29.48
2022-08-09T14:05:57.031Z,29.62
2022-08-09T14:08:20.846Z,29.52
2022-08-09T14:10:52.990Z,29.39
2022-08-09T14:14:16.198Z,29.17
2022-08-09T14:16:14.080Z,28.86
2022-08-09T14:18:45.942Z,28.70
2022-08-09T14:21:20.416Z,28.46
2022-08-09T14:23:54.017Z,28.20
2022-08-09T14:26:32.890Z,27.96
2022-08-09T14:29:03.076Z,27.76
2022-08-09T14:31:36.028Z,27.66
2022-08-09T14:34:31.068Z,27.56
2022-08-09T14:37:02.371Z,27.47
2022-08-09T14:39:45.917Z,27.45
2022-08-09T14:42:31.744Z,27.41
2022-08-09T14:46:45.915Z,27.43
2022-08-09T14:47:57.573Z,27.45
2022-08-09T14:50:30.444Z,27.48
2022-08-09T14:53:00.603Z,27.60
2022-08-09T14:55:32.763Z,27.67
2022-08-09T14:58:03.304Z,27.73
2022-08-09T15:00:33.489Z,27.79
2022-08-09T15:03:03.893Z,27.86
2022-08-09T15:05:33.723Z,27.94
2022-08-09T15:08:03.057Z,28.06
2022-08-09T15:10:32.937Z,28.19
2022-08-09T15:13:02.974Z,28.25
2022-08-09T15:15:34.350Z,28.26
2022-08-09T15:18:12.493Z,28.45
2022-08-09T15:21:57.307Z,28.70
2022-08-09T15:24:02.619Z,29.15
2022-08-09T15:26:31.181Z,30.05
2022-08-09T15:29:02.433Z,29.92
2022-08-09T15:31:41.712Z,30.51
2022-08-09T15:34:32.123Z,31.63
2022-08-09T15:37:04.310Z,31.04
2022-08-09T15:39:43.699Z,30.48
2022-08-09T15:42:22.792Z,29.81
2022-08-09T15:44:52.191Z,29.47
2022-08-09T15:47:22.691Z,29.09
2022-08-09T15:50:03.876Z,28.66
2022-08-09T15:52:35.544Z,28.43
2022-08-09T15:55:05.374Z,28.32
2022-08-09T15:57:44.548Z,28.13
2022-08-09T16:00:25.750Z,27.88
2022-08-09T16:02:56.664Z,27.63
2022-08-09T16:05:26.816Z,27.26
2022-08-09T16:08:30.770Z,26.75
2022-08-09T16:11:01.994Z,26.48
2022-08-09T16:14:04.192Z,26.31
2022-08-09T16:16:26.303Z,26.24
2022-08-09T16:18:58.004Z,26.16
2022-08-09T16:21:31.664Z,26.12
2022-08-09T16:24:05.105Z,26.10
2022-08-09T16:26:38.430Z,26.12
2022-08-09T16:29:12.265Z,26.13
2022-08-09T16:32:18.317Z,26.56
2022-08-09T16:34:55.743Z,29.08
2022-08-09T16:37:53.769Z,31.40
2022-08-09T16:40:10.141Z,32.53
2022-08-09T16:42:44.825Z,33.80
2022-08-09T16:45:14.958Z,34.80
2022-08-09T16:48:39.566Z,35.51
2022-08-09T16:50:38.133Z,35.91
2022-08-09T16:53:08.822Z,34.84
2022-08-09T16:55:57.881Z,35.06
2022-08-09T16:58:28.317Z,34.06
2022-08-09T17:01:05.377Z,32.26
2022-08-09T17:03:34.795Z,32.22
2022-08-09T17:06:28.378Z,32.89
2022-08-09T17:09:03.070Z,33.50
2022-08-09T17:11:43.108Z,32.87
2022-08-09T17:14:26.260Z,31.06
2022-08-09T17:16:59.783Z,29.77
2022-08-09T17:20:04.915Z,29.00
2022-08-09T17:22:28.637Z,29.05
2022-08-09T17:25:09.757Z,29.82
2022-08-09T17:27:49.527Z,29.61
2022-08-09T17:30:25.853Z,28.69
2022-08-09T17:32:57.536Z,27.81
2022-08-09T17:35:31.149Z,27.09
2022-08-09T17:38:12.905Z,26.50
2022-08-09T17:40:50.817Z,26.03
2022-08-09T17:43:34.103Z,25.61
2022-08-09T17:46:06.695Z,25.21
2022-08-09T17:48:39.379Z,24.92
2022-08-09T17:51:18.026Z,24.68
2022-08-09T17:53:52.450Z,24.44
2022-08-09T17:56:27.966Z,24.20
2022-08-09T17:58:57.863Z,24.00
2022-08-09T18:02:03.430Z,23.83
2022-08-09T18:04:16.630Z,23.61
2022-08-09T18:06:54.041Z,23.45
2022-08-09T18:09:41.071Z,23.33
2022-08-09T18:12:17.917Z,23.20
2022-08-09T18:14:54.480Z,23.10
2022-08-09T18:17:27.698Z,23.01
2022-08-09T18:20:55.739Z,22.88
2022-08-09T18:23:05.262Z,22.78
2022-08-09T18:25:52.903Z,22.69
2022-08-09T18:30:42.691Z,22.58
2022-08-09T18:31:13.196Z,22.44
2022-08-09T18:33:46.326Z,22.33
2022-08-09T18:36:25.779Z,22.23
2022-08-09T18:39:02.776Z,22.08
2022-08-09T18:41:34.680Z,21.95
2022-08-09T18:44:13.215Z,21.81
2022-08-09T18:46:47.767Z,21.68
2022-08-09T18:49:21.235Z,21.53
2022-08-09T18:51:55.211Z,21.40
2022-08-09T18:54:28.653Z,21.26
2022-08-09T18:57:05.163Z,21.14
2022-08-09T18:59:37.210Z,21.03
2022-08-09T19:02:14.903Z,20.90
2022-08-09T19:04:48.103Z,20.75
2022-08-09T19:07:33.266Z,20.61
2022-08-09T19:10:14.709Z,20.46
2022-08-09T19:13:04.663Z,20.33
2022-08-09T19:15:36.449Z,20.20
2022-08-09T19:18:05.662Z,20.11
2022-08-09T19:20:36.873Z,20.04
2022-08-09T19:23:08.852Z,19.96
2022-08-09T19:26:00.894Z,19.85
2022-08-09T19:28:32.596Z,19.72
2022-08-09T19:31:01.808Z,19.63
2022-08-09T19:33:37.276Z,19.54
2022-08-09T19:36:07.161Z,19.45
2022-08-09T19:38:41.448Z,19.35
2022-08-09T19:41:12.363Z,19.27
2022-08-09T19:44:03.172Z,19.17
2022-08-09T19:46:35.700Z,19.07
2022-08-09T19:50:06.718Z,18.97
2022-08-09T19:52:12.313Z,18.88
2022-08-09T19:54:41.814Z,18.81
2022-08-09T19:57:11.593Z,18.74
2022-08-09T20:00:05.586Z,18.69
2022-08-09T20:04:23.874Z,18.61
2022-08-09T20:05:29.695Z,18.54
2022-08-09T20:08:16.167Z,18.51
2022-08-09T20:10:56.394Z,18.45
2022-08-09T20:13:27.158Z,18.39
2022-08-09T20:16:34.929Z,18.34
2022-08-09T20:19:04.010Z,18.29
2022-08-09T20:21:54.801Z,18.21
2022-08-09T20:24:31.787Z,18.13
2022-08-09T20:27:08.473Z,18.07
2022-08-09T20:29:39.024Z,18.03
2022-08-09T20:32:28.879Z,18.00
2022-08-09T20:34:57.808Z,17.96
2022-08-09T20:38:18.756Z,17.93
2022-08-09T20:40:26.336Z,17.91
2022-08-09T20:43:12.086Z,17.89
2022-08-09T20:45:59.497Z,17.87
2022-08-09T20:48:32.120Z,17.86
2022-08-09T20:51:02.952Z,17.85
2022-08-09T20:53:37.094Z,17.85
2022-08-09T20:56:08.913Z,17.84
2022-08-09T20:58:38.635Z,17.79
2022-08-09T21:01:33.054Z,17.72
2022-08-09T21:05:53.797Z,17.62
2022-08-09T21:07:11.658Z,17.47
2022-08-09T21:09:55.248Z,17.34
2022-08-09T21:15:17.491Z,17.07
2022-08-09T21:18:25.379Z,16.99
2022-08-09T21:20:43.480Z,16.92
2022-08-09T21:23:19.608Z,16.90
2022-08-09T21:25:56.327Z,16.87
2022-08-09T21:28:34.913Z,16.87
2022-08-09T21:31:18.146Z,16.84
2022-08-09T21:33:51.716Z,16.76
2022-08-09T21:36:23.102Z,16.68
2022-08-09T21:38:57.535Z,16.62
2022-08-09T21:42:05.526Z,16.55
2022-08-09T21:44:33.341Z,16.50
2022-08-09T21:47:04.981Z,16.45
2022-08-09T21:49:40.301Z,16.42
2022-08-09T21:52:15.011Z,16.38
2022-08-09T21:54:51.014Z,16.34
2022-08-09T21:57:39.513Z,16.28
2022-08-09T22:00:25.341Z,16.20
2022-08-09T22:02:58.487Z,16.16
2022-08-09T22:05:36.799Z,16.11
2022-08-09T22:08:06.510Z,16.05
2022-08-09T22:10:35.658Z,15.96
2022-08-09T22:13:24.980Z,15.86
2022-08-09T22:16:00.971Z,15.76
2022-08-09T22:18:33.228Z,15.65
2022-08-09T22:21:02.833Z,15.56
2022-08-09T22:23:59.548Z,15.48
2022-08-09T22:26:34.906Z,15.42
2022-08-09T22:29:09.522Z,15.37
2022-08-09T22:31:50.615Z,15.32
2022-08-09T22:34:26.891Z,15.27
2022-08-09T22:36:56.568Z,15.24
2022-08-09T22:39:57.198Z,15.22
2022-08-09T22:42:20.774Z,15.21
2022-08-09T22:48:04.505Z,15.17
2022-08-09T22:48:11.847Z,15.15
2022-08-09T22:50:31.178Z,15.14
2022-08-09T22:53:03.799Z,15.09
2022-08-09T22:56:06.243Z,15.03
2022-08-09T22:58:32.282Z,14.99
2022-08-09T23:01:03.580Z,14.92
2022-08-09T23:04:04.452Z,14.85
2022-08-09T23:06:34.820Z,14.80
2022-08-09T23:09:06.286Z,14.77
2022-08-09T23:11:35.745Z,14.76
2022-08-09T23:14:09.115Z,14.74
2022-08-09T23:16:39.894Z,14.70
2022-08-09T23:19:09.196Z,14.69
2022-08-09T23:21:38.643Z,14.64
2022-08-09T23:24:09.102Z,14.58
2022-08-09T23:26:38.367Z,14.58
2022-08-09T23:29:08.073Z,14.57
2022-08-09T23:31:37.424Z,14.46
2022-08-09T23:34:06.746Z,14.35
2022-08-09T23:36:36.591Z,14.25
2022-08-09T23:39:06.622Z,14.14
2022-08-09T23:41:36.311Z,14.06
2022-08-09T23:44:05.758Z,13.98
2022-08-09T23:46:35.208Z,13.92
2022-08-09T23:49:04.538Z,13.89
2022-08-09T23:51:33.977Z,13.87
2022-08-09T23:54:03.703Z,13.83
2022-08-09T23:56:52.691Z,13.83
2022-08-09T23:59:22.803Z,13.83
